Time;durP1;ratioP1;P1;durP2;ratioP2;P2;SDS_P1;SDS_P2;PMS_P1;PMS_P2;Temp;Humidity;BMP_temperature;BMP_pressure;BME280_temperature;BME280_humidity;BME280_pressure;Samples;Min_cycle;Max_cycle;Signal;HPM_P1;HPM_P2
2021/06/05 00:01:01;;;;;;;12.83;11.93;;;19.70;99.90;;;;;;5008109;28;20828;-67
2021/06/05 00:03:27;;;;;;;13.77;12.70;;;19.70;99.90;;;;;;5012488;28;20338;-67
2021/06/05 00:05:58;;;;;;;12.50;11.40;;;19.70;99.90;;;;;;5014443;28;20648;-67
2021/06/05 00:08:28;;;;;;;12.43;11.50;;;19.60;99.90;;;;;;5012234;28;20189;-66
2021/06/05 00:10:59;;;;;;;13.10;12.10;;;19.60;99.90;;;;;;5008475;28;20686;-67
2021/06/05 00:13:28;;;;;;;12.60;11.70;;;19.60;99.90;;;;;;5016199;28;20685;-67
2021/06/05 00:15:55;;;;;;;12.90;11.67;;;19.60;99.90;;;;;;5012742;28;20619;-67
2021/06/05 00:18:21;;;;;;;12.90;11.90;;;19.50;99.90;;;;;;5009766;28;20684;-67
2021/06/05 00:20:47;;;;;;;13.70;12.60;;;19.50;99.90;;;;;;5015225;28;20742;-67
2021/06/05 00:23:17;;;;;;;13.20;12.20;;;19.50;99.90;;;;;;5084554;22;20647;-67
2021/06/05 00:25:43;;;;;;;12.50;11.60;;;19.50;99.90;;;;;;5006181;28;20737;-68
2021/06/05 00:28:09;;;;;;;12.17;11.37;;;19.40;99.90;;;;;;5015495;28;20647;-68
2021/06/05 00:30:35;;;;;;;13.07;12.17;;;19.40;99.90;;;;;;5016660;28;20504;-68
2021/06/05 00:33:01;;;;;;;12.77;11.87;;;19.40;99.90;;;;;;5011663;28;21229;-68
2021/06/05 00:35:28;;;;;;;12.63;11.57;;;19.40;99.90;;;;;;5010740;28;20248;-67
2021/06/05 00:37:54;;;;;;;12.20;11.40;;;19.30;99.90;;;;;;5017505;28;20497;-69
2021/06/05 00:40:23;;;;;;;13.33;12.33;;;19.30;99.90;;;;;;5032936;28;20667;-67
2021/06/05 00:42:49;;;;;;;12.60;11.70;;;19.30;99.90;;;;;;5018202;28;20726;-66
2021/06/05 00:45:19;;;;;;;13.20;12.20;;;19.20;99.90;;;;;;5019380;28;21154;-69
2021/06/05 00:47:47;;;;;;;12.43;11.63;;;19.20;99.90;;;;;;5017890;28;20555;-68
2021/06/05 00:50:14;;;;;;;13.10;12.10;;;19.10;99.90;;;;;;5016767;28;20745;-68
2021/06/05 00:52:41;;;;;;;12.07;11.27;;;19.10;99.90;;;;;;5015809;28;20731;-68
2021/06/05 00:55:09;;;;;;;13.10;12.20;;;19.10;99.90;;;;;;5010744;28;20997;-68
2021/06/05 00:57:34;;;;;;;13.73;12.63;;;19.00;99.90;;;;;;5015807;28;20623;-68
2021/06/05 01:00:00;;;;;;;12.80;11.90;;;19.00;99.90;;;;;;5017078;28;20650;-68
2021/06/05 01:02:26;;;;;;;13.40;12.40;;;19.00;99.90;;;;;;5012929;28;20661;-67
2021/06/05 01:04:52;;;;;;;13.03;11.97;;;19.00;99.90;;;;;;5016697;28;20624;-68
2021/06/05 01:07:21;;;;;;;13.33;12.33;;;18.90;99.90;;;;;;5014487;28;20189;-68
2021/06/05 01:09:58;;;;;;;13.50;12.50;;;18.90;99.90;;;;;;5013319;28;20650;-68
2021/06/05 01:12:47;;;;;;;13.17;12.17;;;18.90;99.90;;;;;;5016466;28;20611;-68
2021/06/05 01:15:38;;;;;;;13.07;12.07;;;18.80;99.90;;;;;;5014393;28;20620;-68
2021/06/05 01:18:09;;;;;;;14.37;13.27;;;18.80;99.90;;;;;;5013764;28;20623;-69
2021/06/05 01:21:07;;;;;;;12.27;11.30;;;18.80;99.90;;;;;;5012860;28;21348;-68
2021/06/05 01:23:57;;;;;;;11.83;11.03;;;18.80;99.90;;;;;;5014485;28;20713;-68
2021/06/05 01:26:29;;;;;;;13.07;12.03;;;18.80;99.90;;;;;;5014809;28;21122;-68
2021/06/05 01:29:26;;;;;;;13.10;12.10;;;18.80;99.90;;;;;;5014206;28;20681;-68
2021/06/05 01:31:56;;;;;;;13.30;12.20;;;18.80;99.90;;;;;;4997701;28;20615;-68
2021/06/05 01:34:24;;;;;;;13.17;12.27;;;18.70;99.90;;;;;;5026700;28;20659;-67
2021/06/05 01:36:53;;;;;;;12.70;11.80;;;18.70;99.90;;;;;;5016218;28;20628;-68
2021/06/05 01:39:23;;;;;;;12.70;11.80;;;18.70;99.90;;;;;;5014511;28;20651;-68
2021/06/05 01:41:50;;;;;;;12.93;12.03;;;18.60;99.90;;;;;;5017842;28;20686;-68
2021/06/05 01:44:17;;;;;;;12.73;11.83;;;18.60;99.90;;;;;;5016448;28;21158;-68
2021/06/05 01:46:46;;;;;;;13.90;12.80;;;18.60;99.90;;;;;;5015818;28;21002;-68
2021/06/05 01:49:12;;;;;;;13.93;12.93;;;18.60;99.90;;;;;;5016176;28;20662;-68
2021/06/05 01:51:43;;;;;;;13.10;12.10;;;18.50;99.90;;;;;;5017523;28;20642;-68
2021/06/05 01:54:13;;;;;;;13.90;12.90;;;18.50;99.90;;;;;;5018753;28;20666;-69
2021/06/05 01:56:51;;;;;;;13.67;12.50;;;18.50;99.90;;;;;;5008980;28;20611;-67
2021/06/05 01:59:16;;;;;;;12.90;12.00;;;18.50;99.90;;;;;;5015679;28;20647;-68
2021/06/05 02:01:44;;;;;;;14.10;13.10;;;18.40;99.90;;;;;;5029059;28;20669;-68
2021/06/05 02:04:11;;;;;;;12.87;11.87;;;18.50;99.90;;;;;;5010459;28;20212;-68
2021/06/05 02:06:38;;;;;;;12.87;11.77;;;18.40;99.90;;;;;;5015915;28;21256;-68
2021/06/05 02:09:07;;;;;;;13.80;12.77;;;18.40;99.90;;;;;;5014497;28;22143;-68
2021/06/05 02:11:38;;;;;;;13.27;12.17;;;18.40;99.90;;;;;;5013801;28;21379;-68
2021/06/05 02:14:14;;;;;;;13.60;12.60;;;18.30;99.90;;;;;;5017035;28;20643;-68
2021/06/05 02:16:43;;;;;;;13.87;12.83;;;18.40;99.90;;;;;;5015252;28;20836;-68
2021/06/05 02:19:35;;;;;;;13.40;12.40;;;18.30;99.90;;;;;;5012310;28;20650;-68
2021/06/05 02:22:06;;;;;;;13.30;12.10;;;18.30;99.90;;;;;;4984497;28;20766;-67
2021/06/05 02:24:42;;;;;;;12.83;11.90;;;18.30;99.90;;;;;;5014796;28;20663;-68
2021/06/05 02:27:09;;;;;;;13.50;12.50;;;18.30;99.90;;;;;;5014200;28;20616;-68
2021/06/05 02:29:39;;;;;;;14.03;12.93;;;18.20;99.90;;;;;;5011433;28;21303;-69
2021/06/05 02:32:07;;;;;;;14.50;13.30;;;18.20;99.90;;;;;;5012772;28;20635;-68
2021/06/05 02:34:35;;;;;;;14.27;13.17;;;18.20;99.90;;;;;;5012700;28;20662;-68
2021/06/05 02:37:03;;;;;;;13.37;12.40;;;18.20;99.90;;;;;;5010393;28;20611;-68
2021/06/05 02:39:29;;;;;;;13.53;12.63;;;18.20;99.90;;;;;;5017530;28;20647;-68
2021/06/05 02:41:57;;;;;;;14.07;12.97;;;18.10;99.90;;;;;;5015013;28;21292;-69
2021/06/05 02:44:26;;;;;;;13.40;12.50;;;18.10;99.90;;;;;;5011481;28;20617;-68
2021/06/05 02:46:52;;;;;;;13.43;12.43;;;18.20;99.90;;;;;;5046101;28;20612;-68
2021/06/05 02:49:18;;;;;;;13.20;12.30;;;18.10;99.90;;;;;;5025949;28;20639;-68
2021/06/05 02:51:49;;;;;;;13.40;12.40;;;18.10;99.90;;;;;;5017667;28;20667;-68
2021/06/05 02:54:18;;;;;;;13.23;12.30;;;18.20;99.90;;;;;;5015170;28;20246;-68
2021/06/05 02:56:44;;;;;;;13.90;12.67;;;18.20;99.90;;;;;;5014442;28;20673;-68
2021/06/05 02:59:09;;;;;;;14.20;13.07;;;18.10;99.90;;;;;;5018265;28;20634;-68
2021/06/05 03:01:35;;;;;;;13.90;12.60;;;18.10;99.90;;;;;;5021403;28;20208;-69
2021/06/05 03:04:01;;;;;;;13.90;12.80;;;18.10;99.90;;;;;;5018175;28;20473;-69
2021/06/05 03:06:31;;;;;;;14.30;13.10;;;18.10;99.90;;;;;;5023649;28;20184;-68
2021/06/05 03:08:58;;;;;;;14.60;13.40;;;18.10;99.90;;;;;;5020214;28;20611;-68
2021/06/05 03:11:26;;;;;;;13.67;12.57;;;18.10;99.90;;;;;;5023502;28;20679;-68
2021/06/05 03:13:51;;;;;;;13.97;12.87;;;18.10;99.90;;;;;;5016093;28;20626;-69
2021/06/05 03:16:20;;;;;;;13.20;12.20;;;18.10;99.90;;;;;;5014329;28;21066;-68
2021/06/05 03:18:46;;;;;;;13.30;12.20;;;18.10;99.90;;;;;;5014314;28;20176;-68
2021/06/05 03:21:18;;;;;;;13.87;12.77;;;18.10;99.90;;;;;;5014381;28;20654;-68
2021/06/05 03:23:45;;;;;;;14.03;12.90;;;18.10;99.90;;;;;;5018175;28;20252;-68
2021/06/05 03:26:14;;;;;;;13.20;12.20;;;18.10;99.90;;;;;;5021065;28;20660;-68
2021/06/05 03:28:41;;;;;;;13.10;12.20;;;18.10;99.90;;;;;;5011810;28;20632;-68
2021/06/05 03:31:09;;;;;;;14.13;13.03;;;18.10;99.90;;;;;;5018802;28;20615;-68
2021/06/05 03:33:34;;;;;;;14.30;13.20;;;18.10;99.90;;;;;;5018258;28;20654;-68
2021/06/05 03:36:01;;;;;;;14.33;13.23;;;18.00;99.90;;;;;;5021786;28;20714;-68
2021/06/05 03:38:27;;;;;;;13.50;12.50;;;18.00;99.90;;;;;;5017862;28;20271;-69
2021/06/05 03:40:53;;;;;;;13.97;12.97;;;18.00;99.90;;;;;;5018221;28;21192;-68
2021/06/05 03:43:21;;;;;;;13.10;12.10;;;18.00;99.90;;;;;;5009232;28;20638;-68
2021/06/05 03:45:47;;;;;;;13.87;12.77;;;18.00;99.90;;;;;;5017494;28;20619;-68
2021/06/05 03:48:13;;;;;;;13.47;12.47;;;18.10;99.90;;;;;;5020864;28;20611;-68
2021/06/05 03:50:42;;;;;;;13.03;12.03;;;18.00;99.90;;;;;;5017579;28;20659;-68
2021/06/05 03:53:08;;;;;;;13.00;12.00;;;18.00;99.90;;;;;;5028019;28;20240;-69
2021/06/05 03:55:34;;;;;;;13.47;12.47;;;18.00;99.90;;;;;;5014717;28;20682;-68
2021/06/05 03:58:01;;;;;;;14.40;13.30;;;18.00;99.90;;;;;;5019141;28;20676;-68
2021/06/05 04:00:33;;;;;;;13.07;12.00;;;18.10;99.90;;;;;;5018404;28;21204;-68
2021/06/05 04:02:59;;;;;;;12.57;11.67;;;18.10;99.90;;;;;;5021282;28;20627;-69
2021/06/05 04:05:26;;;;;;;14.97;13.67;;;18.10;99.90;;;;;;5016322;28;20647;-69
2021/06/05 04:07:52;;;;;;;12.37;11.50;;;18.10;99.90;;;;;;5018269;28;20639;-68
2021/06/05 04:10:22;;;;;;;11.87;11.00;;;18.10;99.90;;;;;;5019263;28;21195;-69
2021/06/05 04:12:49;;;;;;;12.53;11.63;;;18.10;99.90;;;;;;5013762;28;20615;-68
2021/06/05 04:15:16;;;;;;;13.27;12.27;;;18.10;99.90;;;;;;5016138;28;20635;-69
2021/06/05 04:17:41;;;;;;;13.57;12.40;;;18.20;99.90;;;;;;5015023;28;20654;-69
2021/06/05 04:20:11;;;;;;;13.40;12.50;;;18.20;99.90;;;;;;5014444;28;20647;-68
2021/06/05 04:22:37;;;;;;;13.00;12.10;;;18.20;99.90;;;;;;5027120;28;20189;-68
2021/06/05 04:25:04;;;;;;;13.20;12.20;;;18.30;99.90;;;;;;5014388;28;21635;-68
2021/06/05 04:27:30;;;;;;;12.93;12.03;;;18.30;99.90;;;;;;5014739;28;20185;-68
2021/06/05 04:29:56;;;;;;;12.87;11.97;;;18.30;99.90;;;;;;5016412;28;20797;-68
2021/06/05 04:32:22;;;;;;;13.33;12.33;;;18.40;99.90;;;;;;5011217;28;20235;-68
2021/06/05 04:34:47;;;;;;;14.17;12.83;;;18.40;99.90;;;;;;5012067;28;21198;-68
2021/06/05 04:37:13;;;;;;;13.47;12.47;;;18.40;99.90;;;;;;5014921;28;21016;-68
2021/06/05 04:39:40;;;;;;;13.60;12.30;;;18.40;99.90;;;;;;5009255;28;20221;-69
2021/06/05 04:42:07;;;;;;;13.90;12.90;;;18.50;99.90;;;;;;5019153;28;20682;-69
2021/06/05 04:44:33;;;;;;;13.77;12.57;;;18.50;99.90;;;;;;5011035;28;20726;-68
2021/06/05 04:46:59;;;;;;;13.73;12.63;;;18.60;99.90;;;;;;5014920;28;20646;-69
2021/06/05 04:49:24;;;;;;;12.87;11.97;;;18.60;99.90;;;;;;5015488;28;21061;-69
2021/06/05 04:51:50;;;;;;;12.50;11.70;;;18.70;99.90;;;;;;5018512;28;20185;-68
2021/06/05 04:54:15;;;;;;;11.30;10.50;;;18.70;99.90;;;;;;5008170;28;20221;-68
2021/06/05 04:56:44;;;;;;;13.07;11.87;;;18.80;99.90;;;;;;5008420;28;20219;-68
2021/06/05 04:59:12;;;;;;;12.60;11.70;;;18.80;99.90;;;;;;5029597;28;20243;-68
2021/06/05 05:01:38;;;;;;;12.50;11.60;;;18.90;99.90;;;;;;5011293;28;21186;-68
2021/06/05 05:04:04;;;;;;;12.03;11.13;;;19.00;99.90;;;;;;5002213;28;20631;-68
2021/06/05 05:06:31;;;;;;;12.60;11.70;;;19.00;99.90;;;;;;5005728;28;20328;-68
2021/06/05 05:08:57;;;;;;;12.80;11.90;;;19.10;99.90;;;;;;5010614;28;20266;-68
2021/06/05 05:11:23;;;;;;;12.70;11.70;;;19.20;99.90;;;;;;5004839;28;21044;-68
2021/06/05 05:13:49;;;;;;;11.90;11.07;;;19.20;99.90;;;;;;5012657;28;20891;-69
2021/06/05 05:16:15;;;;;;;12.53;11.53;;;19.20;99.90;;;;;;5011191;28;20656;-68
2021/06/05 05:18:46;;;;;;;13.43;12.33;;;19.30;99.90;;;;;;5005549;28;20615;-68
2021/06/05 05:21:16;;;;;;;13.70;12.70;;;19.30;99.90;;;;;;5008808;28;21151;-71
2021/06/05 05:23:42;;;;;;;13.10;11.90;;;19.40;99.90;;;;;;5014070;28;20639;-68
2021/06/05 05:26:09;;;;;;;13.20;12.00;;;19.40;99.90;;;;;;5006401;28;20631;-69
2021/06/05 05:28:36;;;;;;;12.03;11.23;;;19.40;99.90;;;;;;5005377;28;20258;-69
2021/06/05 05:31:06;;;;;;;13.23;12.23;;;19.50;99.90;;;;;;5008879;28;21560;-69
2021/06/05 05:33:37;;;;;;;13.50;12.50;;;19.50;99.90;;;;;;5005308;28;20639;-68
2021/06/05 05:36:10;;;;;;;12.03;11.10;;;19.50;99.90;;;;;;5009107;28;20681;-68
2021/06/05 05:38:39;;;;;;;13.53;12.43;;;19.60;99.90;;;;;;5013793;28;21372;-68
2021/06/05 05:41:06;;;;;;;12.63;11.73;;;19.50;99.90;;;;;;5019247;28;20786;-69
2021/06/05 05:43:32;;;;;;;13.17;12.17;;;19.60;99.90;;;;;;5023132;28;20667;-68
2021/06/05 05:45:58;;;;;;;12.63;11.63;;;19.60;99.90;;;;;;5024104;28;20671;-68
2021/06/05 05:48:23;;;;;;;13.07;12.07;;;19.60;99.90;;;;;;5019232;28;20200;-69
2021/06/05 05:50:50;;;;;;;12.27;11.37;;;19.60;99.90;;;;;;5021908;28;20649;-68
2021/06/05 05:53:15;;;;;;;12.67;11.77;;;19.70;99.90;;;;;;5022063;28;20225;-68
2021/06/05 05:55:41;;;;;;;12.53;11.63;;;19.70;99.90;;;;;;5034687;28;20685;-68
2021/06/05 05:58:13;;;;;;;12.40;11.50;;;19.70;99.90;;;;;;5016990;28;20192;-68
2021/06/05 06:00:41;;;;;;;12.60;11.60;;;19.80;99.90;;;;;;5019903;28;20663;-68
2021/06/05 06:03:07;;;;;;;12.87;11.97;;;19.80;99.90;;;;;;5011905;28;20753;-68
2021/06/05 06:05:34;;;;;;;12.27;11.43;;;19.90;99.90;;;;;;4999464;28;21173;-68
2021/06/05 06:08:00;;;;;;;13.33;12.23;;;20.00;99.90;;;;;;5015259;28;20624;-68
2021/06/05 06:10:27;;;;;;;13.50;12.37;;;20.00;99.90;;;;;;5019701;28;20997;-68
2021/06/05 06:12:53;;;;;;;13.50;12.40;;;20.10;99.90;;;;;;5021670;28;20254;-68
2021/06/05 06:15:24;;;;;;;14.37;12.37;;;20.10;99.90;;;;;;5023374;28;21035;-68
2021/06/05 06:17:51;;;;;;;12.13;11.23;;;20.20;99.90;;;;;;5023862;28;20276;-68
2021/06/05 06:20:42;;;;;;;13.17;12.07;;;20.20;99.90;;;;;;5021046;28;20647;-68
2021/06/05 06:23:10;;;;;;;12.70;11.80;;;20.30;99.90;;;;;;5019406;28;20669;-68
2021/06/05 06:25:40;;;;;;;11.83;10.93;;;20.30;99.90;;;;;;5036661;28;20669;-68
2021/06/05 06:28:10;;;;;;;12.27;11.20;;;20.40;99.90;;;;;;5021779;28;20666;-68
2021/06/05 06:30:38;;;;;;;12.63;11.43;;;20.50;99.90;;;;;;5022966;28;20641;-68
2021/06/05 06:33:09;;;;;;;11.97;10.97;;;20.60;99.90;;;;;;5022987;28;20615;-68
2021/06/05 06:35:36;;;;;;;11.87;11.17;;;20.70;99.90;;;;;;5020640;28;20619;-68
2021/06/05 06:38:04;;;;;;;11.67;10.70;;;20.70;99.90;;;;;;5025823;28;21169;-68
2021/06/05 06:40:33;;;;;;;12.30;11.30;;;20.90;99.90;;;;;;5028716;28;20659;-68
2021/06/05 06:43:01;;;;;;;11.83;10.93;;;20.90;99.90;;;;;;5040810;28;21000;-68
2021/06/05 06:45:27;;;;;;;11.57;10.50;;;20.90;99.90;;;;;;5024837;28;20603;-68
2021/06/05 06:47:54;;;;;;;11.57;10.67;;;21.00;99.90;;;;;;5026613;28;20607;-68
2021/06/05 06:50:22;;;;;;;11.70;10.70;;;21.10;99.90;;;;;;5026737;28;21170;-69
2021/06/05 06:52:48;;;;;;;10.77;10.07;;;21.10;99.90;;;;;;5023440;28;20615;-68
2021/06/05 06:55:15;;;;;;;10.63;9.73;;;21.20;99.90;;;;;;5027521;28;21276;-69
2021/06/05 06:57:41;;;;;;;11.20;10.37;;;21.20;99.90;;;;;;5022424;28;20201;-68
2021/06/05 07:00:11;;;;;;;10.47;9.77;;;21.30;99.90;;;;;;5022498;28;20660;-68
2021/06/05 07:02:37;;;;;;;11.10;10.10;;;21.50;99.90;;;;;;5022014;28;20264;-68
2021/06/05 07:05:04;;;;;;;11.27;10.27;;;21.60;99.90;;;;;;5024326;28;20734;-68
2021/06/05 07:07:30;;;;;;;11.43;10.53;;;21.70;99.90;;;;;;5025824;28;20188;-68
2021/06/05 07:09:56;;;;;;;10.93;10.13;;;21.70;99.90;;;;;;5020234;28;20633;-68
2021/06/05 07:12:21;;;;;;;10.50;9.70;;;21.80;99.90;;;;;;5027645;28;20239;-69
2021/06/05 07:14:47;;;;;;;10.57;9.80;;;21.80;99.90;;;;;;5021546;28;20635;-68
2021/06/05 07:17:13;;;;;;;10.17;9.50;;;21.90;99.90;;;;;;5025022;28;20199;-68
2021/06/05 07:19:38;;;;;;;10.60;9.83;;;22.00;99.90;;;;;;5027276;28;20692;-68
2021/06/05 07:22:04;;;;;;;10.13;9.40;;;22.10;99.90;;;;;;5026562;28;20783;-68
2021/06/05 07:24:30;;;;;;;9.60;9.00;;;22.20;99.90;;;;;;5026906;28;20311;-69
2021/06/05 07:26:56;;;;;;;9.90;9.20;;;22.30;99.90;;;;;;5023036;28;20221;-69
2021/06/05 07:29:22;;;;;;;10.00;9.23;;;22.40;99.90;;;;;;5028032;28;20700;-69
2021/06/05 07:31:51;;;;;;;9.70;8.80;;;22.50;99.90;;;;;;5026281;28;20223;-69
2021/06/05 07:34:22;;;;;;;9.60;8.70;;;22.50;99.90;;;;;;5024178;28;21213;-69
2021/06/05 07:36:51;;;;;;;8.73;7.60;;;22.60;99.90;;;;;;5023603;28;20611;-69
2021/06/05 07:39:20;;;;;;;8.20;7.60;;;22.60;99.90;;;;;;5025409;28;20722;-69
2021/06/05 07:41:47;;;;;;;8.57;7.97;;;22.80;99.90;;;;;;5023460;28;20665;-67
2021/06/05 07:44:13;;;;;;;8.83;8.23;;;22.90;99.90;;;;;;5024216;28;20738;-67
2021/06/05 07:46:40;;;;;;;8.80;8.00;;;23.00;99.90;;;;;;5023034;28;20715;-68
2021/06/05 07:49:06;;;;;;;8.50;7.90;;;23.10;99.90;;;;;;5029487;28;20204;-67
2021/06/05 07:51:31;;;;;;;8.30;7.60;;;23.10;99.90;;;;;;5025640;28;21076;-68
2021/06/05 07:53:57;;;;;;;8.60;8.00;;;23.20;99.90;;;;;;5031950;28;20243;-68
2021/06/05 07:56:22;;;;;;;7.60;7.00;;;23.30;99.90;;;;;;5027841;28;20207;-67
2021/06/05 07:58:48;;;;;;;8.40;7.57;;;23.40;99.90;;;;;;5027550;28;20197;-68
2021/06/05 08:01:13;;;;;;;7.80;7.23;;;23.50;99.90;;;;;;5024357;28;20579;-68
2021/06/05 08:03:39;;;;;;;8.20;7.60;;;23.60;99.90;;;;;;5023667;28;20228;-68
2021/06/05 08:06:04;;;;;;;8.00;7.40;;;23.80;99.90;;;;;;5028083;28;20199;-67
2021/06/05 08:08:30;;;;;;;7.30;6.70;;;23.90;99.90;;;;;;5026242;28;20193;-67
2021/06/05 08:10:58;;;;;;;7.40;6.83;;;23.90;99.90;;;;;;5028590;28;20341;-68
2021/06/05 08:13:24;;;;;;;7.77;6.97;;;24.00;99.90;;;;;;5023861;28;20370;-69
2021/06/05 08:15:51;;;;;;;7.87;7.37;;;24.10;99.90;;;;;;5021662;28;20717;-68
2021/06/05 08:18:17;;;;;;;7.50;7.00;;;24.20;99.90;;;;;;5025126;28;21072;-68
2021/06/05 08:20:47;;;;;;;7.23;6.73;;;24.20;99.90;;;;;;5025190;28;20651;-67
2021/06/05 08:23:13;;;;;;;6.70;6.20;;;24.40;99.90;;;;;;5026783;28;20611;-67
2021/06/05 08:25:39;;;;;;;6.80;6.30;;;24.40;99.90;;;;;;5020989;28;20620;-68
2021/06/05 08:28:05;;;;;;;7.40;6.90;;;24.50;99.90;;;;;;5025289;28;20699;-68
2021/06/05 08:30:35;;;;;;;7.10;6.60;;;24.60;99.90;;;;;;5025808;28;21072;-68
2021/06/05 08:33:02;;;;;;;7.70;7.20;;;24.70;99.90;;;;;;5017205;28;20646;-67
2021/06/05 08:35:27;;;;;;;6.90;6.43;;;24.80;99.90;;;;;;5032950;28;20608;-68
2021/06/05 08:37:54;;;;;;;7.23;6.67;;;24.90;99.90;;;;;;5031063;28;20627;-67
2021/06/05 08:40:30;;;;;;;7.23;6.63;;;25.00;99.90;;;;;;5025532;28;20236;-67
2021/06/05 08:42:56;;;;;;;7.77;7.07;;;25.00;99.90;;;;;;5025134;28;21027;-67
2021/06/05 08:45:28;;;;;;;6.70;6.30;;;25.00;99.90;;;;;;5018190;28;21623;-68
2021/06/05 08:47:54;;;;;;;7.37;6.87;;;25.20;99.90;;;;;;5025825;28;20781;-69
2021/06/05 08:50:26;;;;;;;6.83;6.43;;;25.30;99.90;;;;;;5024607;28;20798;-71
2021/06/05 08:52:53;;;;;;;6.80;6.30;;;25.40;99.90;;;;;;5025128;28;20615;-68
2021/06/05 08:55:29;;;;;;;6.87;6.37;;;25.40;99.90;;;;;;5021259;28;20647;-68
2021/06/05 08:58:19;;;;;;;6.70;6.30;;;25.50;99.90;;;;;;5020569;28;20611;-68
2021/06/05 09:00:47;;;;;;;7.20;6.70;;;25.60;99.90;;;;;;5025978;28;20682;-68
2021/06/05 09:03:20;;;;;;;7.20;6.60;;;25.70;99.90;;;;;;5021684;28;20604;-68
2021/06/05 09:05:53;;;;;;;7.17;6.67;;;25.80;99.90;;;;;;5022383;28;20622;-68
2021/06/05 09:08:20;;;;;;;6.40;5.87;;;25.90;99.90;;;;;;5024185;28;20624;-68
2021/06/05 09:10:47;;;;;;;6.73;6.30;;;25.90;99.90;;;;;;5021846;28;20647;-68
2021/06/05 09:13:13;;;;;;;6.50;6.10;;;26.00;99.90;;;;;;5020430;28;20655;-67
2021/06/05 09:15:42;;;;;;;6.47;5.97;;;26.00;99.90;;;;;;5017798;28;23165;-67
2021/06/05 09:18:10;;;;;;;5.90;5.50;;;26.00;99.90;;;;;;5025994;28;20975;-67
2021/06/05 09:21:01;;;;;;;6.70;6.20;;;26.10;99.90;;;;;;5023582;28;20663;-67
2021/06/05 09:23:32;;;;;;;7.33;6.83;;;26.00;99.90;;;;;;5021140;28;20647;-67
2021/06/05 09:26:24;;;;;;;6.83;6.33;;;26.10;99.90;;;;;;5022399;28;20730;-68
2021/06/05 09:29:08;;;;;;;6.53;6.00;;;26.10;99.90;;;;;;5026757;28;20568;-68
2021/06/05 09:31:48;;;;;;;6.53;6.13;;;26.10;99.90;;;;;;5023713;28;20645;-68
2021/06/05 09:34:14;;;;;;;6.83;6.33;;;26.10;99.90;;;;;;5025026;28;21021;-68
2021/06/05 09:36:40;;;;;;;7.10;6.40;;;26.20;99.90;;;;;;5023359;28;20639;-67
2021/06/05 09:39:10;;;;;;;6.33;5.90;;;26.30;99.90;;;;;;5025479;28;21025;-67
2021/06/05 09:41:35;;;;;;;7.00;6.37;;;26.40;99.90;;;;;;5023149;28;20212;-69
2021/06/05 09:44:21;;;;;;;5.93;5.43;;;26.40;99.90;;;;;;5023246;28;20908;-67
2021/06/05 09:47:04;;;;;;;6.53;6.13;;;26.50;99.90;;;;;;5022609;28;20188;-67
2021/06/05 09:49:50;;;;;;;6.70;6.30;;;26.50;99.90;;;;;;5022639;28;20649;-68
2021/06/05 09:52:24;;;;;;;7.07;6.57;;;26.50;99.90;;;;;;5024352;28;20603;-68
2021/06/05 09:54:53;;;;;;;6.50;6.10;;;26.70;99.90;;;;;;5024993;28;20646;-68
2021/06/05 09:57:30;;;;;;;6.77;6.27;;;26.70;99.90;;;;;;5020645;28;20607;-68
2021/06/05 10:00:07;;;;;;;6.43;5.93;;;26.80;99.90;;;;;;5021735;28;20631;-68
2021/06/05 10:02:34;;;;;;;6.87;6.20;;;26.90;99.90;;;;;;5023622;28;20659;-68
2021/06/05 10:05:23;;;;;;;7.13;6.53;;;26.90;99.90;;;;;;5023874;28;20608;-68
2021/06/05 10:07:51;;;;;;;6.60;6.17;;;26.90;99.90;;;;;;5024226;28;20623;-67
2021/06/05 10:10:38;;;;;;;6.50;6.03;;;27.00;99.90;;;;;;5021976;28;20668;-68
2021/06/05 10:13:28;;;;;;;6.70;6.20;;;27.00;99.90;;;;;;5025418;28;20685;-68
2021/06/05 10:16:10;;;;;;;6.47;6.07;;;27.10;99.90;;;;;;5020989;28;20719;-68
2021/06/05 10:18:57;;;;;;;6.30;5.90;;;27.20;99.90;;;;;;5024588;28;20607;-68
2021/06/05 10:21:34;;;;;;;6.53;6.13;;;27.30;99.90;;;;;;5024410;28;20635;-68
2021/06/05 10:24:09;;;;;;;6.40;5.90;;;27.30;99.90;;;;;;5021570;28;21500;-68
2021/06/05 10:26:40;;;;;;;6.17;5.80;;;27.40;99.90;;;;;;5019403;28;20580;-68
2021/06/05 10:29:27;;;;;;;6.83;6.23;;;27.50;99.90;;;;;;5026013;28;21323;-68
2021/06/05 10:31:54;;;;;;;7.00;6.50;;;27.60;99.90;;;;;;5024490;28;20618;-68
2021/06/05 10:34:35;;;;;;;6.63;6.13;;;27.60;99.90;;;;;;5023551;28;21007;-68
2021/06/05 10:37:01;;;;;;;5.90;5.50;;;27.60;99.90;;;;;;5023171;28;20644;-67
2021/06/05 10:39:31;;;;;;;6.60;6.20;;;27.60;99.90;;;;;;5024168;28;20651;-68
2021/06/05 10:42:21;;;;;;;6.43;6.03;;;27.70;99.90;;;;;;5023189;28;20686;-68
2021/06/05 10:44:46;;;;;;;7.37;6.70;;;27.80;99.90;;;;;;5022785;28;20619;-69
2021/06/05 10:47:49;;;;;;;6.67;6.27;;;27.90;99.90;;;;;;5024608;28;21175;-69
2021/06/05 10:50:23;;;;;;;5.80;5.50;;;27.90;99.90;;;;;;5004733;28;20252;-69
2021/06/05 10:52:59;;;;;;;6.40;5.97;;;28.00;99.90;;;;;;5019924;28;20611;-69
2021/06/05 10:55:27;;;;;;;6.40;6.00;;;28.10;99.90;;;;;;5023185;28;20738;-69
2021/06/05 10:58:13;;;;;;;6.93;6.33;;;28.20;99.90;;;;;;5024160;28;20611;-69
2021/06/05 11:00:41;;;;;;;6.57;6.17;;;28.30;99.90;;;;;;5021411;28;21216;-68
2021/06/05 11:03:09;;;;;;;5.93;5.53;;;28.30;99.90;;;;;;5021596;28;20623;-68
2021/06/05 11:05:36;;;;;;;6.33;5.93;;;28.40;99.90;;;;;;5038038;28;20627;-69
2021/06/05 11:08:11;;;;;;;6.10;5.60;;;28.50;99.90;;;;;;5028739;28;20631;-69
2021/06/05 11:10:49;;;;;;;6.77;6.27;;;28.50;99.90;;;;;;5022325;28;20688;-68
2021/06/05 11:13:36;;;;;;;6.83;6.43;;;28.60;99.90;;;;;;5023623;28;21111;-69
2021/06/05 11:16:10;;;;;;;7.97;7.50;;;28.70;99.90;;;;;;5019046;28;21194;-69
2021/06/05 11:18:39;;;;;;;6.20;5.70;;;28.80;99.90;;;;;;5023761;28;20669;-69
2021/06/05 11:21:23;;;;;;;6.63;6.23;;;28.80;99.90;;;;;;5024411;28;20693;-68
2021/06/05 11:23:57;;;;;;;6.00;5.70;;;28.90;99.90;;;;;;5031897;28;21048;-68
2021/06/05 11:26:38;;;;;;;6.50;6.00;;;28.90;99.90;;;;;;5022251;28;20717;-69
2021/06/05 11:29:20;;;;;;;6.30;5.87;;;29.00;99.90;;;;;;5029154;28;20759;-69
2021/06/05 11:32:06;;;;;;;5.70;5.40;;;28.90;99.90;;;;;;5036468;28;20681;-69
2021/06/05 11:34:38;;;;;;;6.10;5.67;;;29.00;99.90;;;;;;5045276;28;20647;-69
2021/06/05 11:37:15;;;;;;;6.20;5.80;;;29.10;99.90;;;;;;5031024;28;20719;-68
2021/06/05 11:40:04;;;;;;;6.17;5.83;;;29.10;99.90;;;;;;5025662;28;21233;-69
2021/06/05 11:42:30;;;;;;;5.93;5.63;;;29.20;99.90;;;;;;5029444;28;21529;-69
2021/06/05 11:45:21;;;;;;;6.13;5.73;;;29.30;99.90;;;;;;5032127;28;20619;-68
2021/06/05 11:47:47;;;;;;;6.90;6.50;;;29.40;99.90;;;;;;5027322;28;20185;-69
2021/06/05 11:50:18;;;;;;;7.00;6.50;;;29.40;99.90;;;;;;5026831;28;20635;-69
2021/06/05 11:52:49;;;;;;;6.57;6.07;;;29.60;99.90;;;;;;5023091;28;20560;-68
2021/06/05 11:55:35;;;;;;;5.70;5.40;;;29.70;99.90;;;;;;5022831;28;20635;-69
2021/06/05 11:58:18;;;;;;;6.57;6.00;;;29.80;99.90;;;;;;5029373;28;21202;-69
2021/06/05 12:00:58;;;;;;;6.13;5.83;;;29.80;99.90;;;;;;5025021;28;20663;-69
2021/06/05 12:03:32;;;;;;;6.30;5.80;;;29.90;99.90;;;;;;5024898;28;20627;-68
2021/06/05 12:06:13;;;;;;;6.77;6.37;;;30.00;99.90;;;;;;5024183;28;20591;-69
2021/06/05 12:08:39;;;;;;;5.70;5.30;;;30.10;99.90;;;;;;5020844;28;20705;-69
2021/06/05 12:11:22;;;;;;;6.50;6.10;;;30.10;99.90;;;;;;5019076;28;20665;-69
2021/06/05 12:13:48;;;;;;;6.20;5.80;;;30.20;99.90;;;;;;5023712;28;20639;-69
2021/06/05 12:16:16;;;;;;;6.03;5.63;;;30.30;99.90;;;;;;5025399;28;21099;-68
2021/06/05 12:18:46;;;;;;;6.40;6.00;;;30.40;99.90;;;;;;5025055;28;20773;-68
2021/06/05 12:21:36;;;;;;;5.80;5.20;;;30.50;99.90;;;;;;5026554;28;20651;-68
2021/06/05 12:24:25;;;;;;;6.20;5.80;;;30.70;99.90;;;;;;5040398;22;20679;-88
2021/06/05 12:26:53;;;;;;;6.70;6.30;;;30.90;99.90;;;;;;5048412;28;20606;-87
2021/06/05 12:29:38;;;;;;;5.83;5.53;;;31.00;99.90;;;;;;5052288;28;20623;-89
2021/06/05 12:32:23;;;;;;;6.27;5.67;;;31.00;99.90;;;;;;5044552;28;21176;-88
2021/06/05 12:34:48;;;;;;;6.10;5.70;;;31.00;99.90;;;;;;5024472;28;20624;-88
2021/06/05 12:37:19;;;;;;;6.10;5.60;;;31.00;99.90;;;;;;5027917;28;20614;-89
2021/06/05 12:39:52;;;;;;;6.23;5.83;;;31.00;99.90;;;;;;5024755;28;20203;-89
2021/06/05 12:42:32;;;;;;;6.00;5.60;;;31.00;99.90;;;;;;5027076;28;20648;-89
2021/06/05 12:45:06;;;;;;;6.23;5.63;;;31.00;99.90;;;;;;5024710;28;20789;-89
2021/06/05 12:47:34;;;;;;;6.50;6.07;;;30.80;99.90;;;;;;5043855;28;21103;-90
2021/06/05 12:50:02;;;;;;;6.60;6.00;;;30.80;99.90;;;;;;5028453;28;20623;-88
2021/06/05 12:52:29;;;;;;;6.10;5.60;;;30.80;99.90;;;;;;5034253;28;20707;-88